Time;durP1;ratioP1;P1;durP2;ratioP2;P2;SDS_P1;SDS_P2;PMS_P1;PMS_P2;Temp;Humidity;BMP_temperature;BMP_pressure;BME280_temperature;BME280_humidity;BME280_pressure;Samples;Min_cycle;Max_cycle;Signal;HPM_P1;HPM_P2
2023/01/27 00:02:13;;;;;;;27.17;17.13;;;8.30;86.70;;;;;;5035471;28;20056;-88
2023/01/27 00:04:39;;;;;;;28.30;17.05;;;8.30;86.80;;;;;;5035216;28;20041;-87
2023/01/27 00:07:04;;;;;;;20.90;14.88;;;8.30;86.60;;;;;;5035160;28;20057;-87
2023/01/27 00:09:30;;;;;;;21.00;14.30;;;8.40;86.60;;;;;;5034959;28;20049;-88
2023/01/27 00:14:40;;;;;;;22.02;14.07;;;8.40;86.40;;;;;;5034404;28;20056;-88
2023/01/27 00:17:05;;;;;;;21.20;13.82;;;8.40;86.30;;;;;;5035090;28;20124;-86
2023/01/27 00:19:31;;;;;;;19.55;14.27;;;8.30;86.40;;;;;;5034449;28;20103;-87
2023/01/27 00:24:41;;;;;;;21.35;13.50;;;8.30;86.50;;;;;;5034512;28;20410;-86
2023/01/27 00:27:08;;;;;;;19.10;13.55;;;8.30;86.40;;;;;;5017916;28;20056;-88
2023/01/27 00:29:35;;;;;;;21.40;14.38;;;8.30;86.60;;;;;;5017438;28;20091;-89
2023/01/27 00:34:45;;;;;;;18.45;12.27;;;8.30;86.50;;;;;;5034357;28;20052;-88
2023/01/27 00:37:11;;;;;;;19.25;12.57;;;8.30;86.40;;;;;;5034068;28;20118;-87
2023/01/27 00:39:36;;;;;;;19.85;12.60;;;8.40;86.50;;;;;;5033974;28;20048;-87
2023/01/27 00:42:02;;;;;;;19.67;12.70;;;8.30;86.60;;;;;;5033795;28;20128;-87
2023/01/27 00:44:27;;;;;;;19.50;12.57;;;8.40;86.60;;;;;;5034028;28;20064;-87
2023/01/27 00:46:53;;;;;;;15.65;11.00;;;8.40;86.40;;;;;;5034297;28;20474;-87
2023/01/27 00:49:19;;;;;;;18.30;11.85;;;8.40;86.40;;;;;;5034184;28;20045;-88
2023/01/27 00:51:44;;;;;;;18.55;12.00;;;8.40;86.40;;;;;;5033618;28;20045;-87
2023/01/27 00:54:10;;;;;;;17.08;11.45;;;8.50;86.30;;;;;;5017449;28;20402;-87
2023/01/27 00:56:36;;;;;;;14.68;10.77;;;8.50;86.30;;;;;;5033422;28;20048;-87
2023/01/27 00:59:03;;;;;;;14.57;10.55;;;8.50;86.30;;;;;;5033684;28;20151;-87
2023/01/27 01:01:29;;;;;;;15.95;10.00;;;8.50;86.20;;;;;;5017016;28;20067;-87
2023/01/27 01:03:55;;;;;;;16.73;10.27;;;8.50;86.20;;;;;;5033484;28;20056;-88
2023/01/27 01:06:20;;;;;;;13.52;9.55;;;8.60;86.10;;;;;;5016742;28;20057;-88
2023/01/27 01:08:47;;;;;;;12.75;9.13;;;8.60;86.00;;;;;;5034103;28;20452;-89
2023/01/27 01:11:14;;;;;;;12.07;8.20;;;8.50;85.90;;;;;;5034532;28;20041;-87
2023/01/27 01:13:41;;;;;;;15.10;8.63;;;8.50;86.00;;;;;;5033488;28;20049;-88
2023/01/27 01:16:09;;;;;;;13.15;8.52;;;8.50;86.00;;;;;;5033507;28;20383;-87
2023/01/27 01:18:35;;;;;;;10.70;7.75;;;8.50;86.00;;;;;;5034158;28;20072;-89
2023/01/27 01:21:00;;;;;;;12.23;7.50;;;8.50;85.90;;;;;;5017640;28;20549;-87
2023/01/27 01:23:26;;;;;;;10.20;7.28;;;8.50;86.00;;;;;;5033011;28;20041;-87
2023/01/27 01:25:56;;;;;;;9.15;6.75;;;8.50;86.00;;;;;;5033315;28;20077;-88
2023/01/27 01:28:23;;;;;;;11.93;7.00;;;8.50;86.00;;;;;;5033509;28;20044;-89
2023/01/27 01:30:48;;;;;;;10.13;6.68;;;8.50;85.90;;;;;;5035338;28;20455;-89
2023/01/27 01:33:15;;;;;;;10.02;6.93;;;8.50;85.90;;;;;;5033975;28;20131;-88
2023/01/27 01:35:40;;;;;;;8.05;6.30;;;8.50;86.00;;;;;;5016963;28;20044;-88
2023/01/27 01:38:06;;;;;;;12.95;7.32;;;8.50;86.10;;;;;;5034321;28;20128;-88
2023/01/27 01:40:32;;;;;;;10.25;7.20;;;8.40;85.90;;;;;;5034088;28;20087;-89
2023/01/27 01:43:00;;;;;;;14.88;8.73;;;8.40;85.90;;;;;;5034893;28;20049;-89
2023/01/27 01:45:35;;;;;;;12.15;7.60;;;8.40;86.10;;;;;;5034262;28;20611;-89
2023/01/27 01:48:01;;;;;;;11.80;8.27;;;8.30;86.10;;;;;;5033900;28;20071;-88
2023/01/27 01:50:27;;;;;;;9.68;7.63;;;8.40;86.10;;;;;;5034401;28;20048;-88
2023/01/27 01:52:53;;;;;;;11.05;8.02;;;8.40;86.10;;;;;;5034363;28;20083;-88
2023/01/27 01:55:19;;;;;;;10.68;7.57;;;8.40;86.20;;;;;;5017608;28;20051;-89
2023/01/27 01:57:45;;;;;;;11.07;7.90;;;8.40;86.20;;;;;;5017845;28;20418;-88
2023/01/27 02:00:12;;;;;;;11.10;7.30;;;8.40;86.70;;;;;;5034841;28;20041;-89
2023/01/27 02:02:39;;;;;;;9.98;6.88;;;8.30;86.10;;;;;;5017420;28;20041;-89
2023/01/27 02:05:24;;;;;;;11.85;6.68;;;8.30;86.10;;;;;;5034104;28;20048;-89
2023/01/27 02:08:05;;;;;;;10.75;6.95;;;8.30;86.10;;;;;;5033250;28;20620;-89
2023/01/27 02:10:32;;;;;;;9.98;6.43;;;8.40;86.00;;;;;;5034273;28;20463;-89
2023/01/27 02:12:58;;;;;;;10.02;6.32;;;8.30;85.80;;;;;;5017616;28;20570;-89
2023/01/27 02:15:23;;;;;;;9.85;6.03;;;8.40;85.90;;;;;;5034323;28;20052;-88
2023/01/27 02:17:49;;;;;;;9.80;6.13;;;8.40;85.90;;;;;;5033779;28;20411;-89
2023/01/27 02:20:34;;;;;;;8.77;5.82;;;8.40;85.80;;;;;;5016914;28;20130;-90
2023/01/27 02:23:30;;;;;;;10.02;5.63;;;8.30;86.00;;;;;;5033449;28;20499;-89
2023/01/27 02:26:18;;;;;;;9.63;4.88;;;8.30;85.90;;;;;;5034157;28;20576;-90
2023/01/27 02:28:43;;;;;;;8.27;5.47;;;8.30;85.70;;;;;;5033474;28;20098;-89
2023/01/27 02:31:09;;;;;;;10.45;4.90;;;8.40;85.40;;;;;;5033174;28;20045;-89
2023/01/27 02:33:35;;;;;;;7.43;4.72;;;8.40;85.50;;;;;;5033556;28;20049;-88
2023/01/27 02:36:09;;;;;;;7.25;4.50;;;8.40;85.50;;;;;;5033090;28;20055;-89
2023/01/27 02:38:42;;;;;;;9.57;5.00;;;8.30;85.30;;;;;;5033336;28;20037;-87
2023/01/27 02:41:15;;;;;;;7.80;4.07;;;8.30;85.20;;;;;;5033200;28;20405;-88
2023/01/27 02:43:41;;;;;;;4.65;4.10;;;8.40;85.20;;;;;;5016100;28;20106;-89
2023/01/27 02:46:07;;;;;;;10.50;4.85;;;8.40;85.10;;;;;;5032428;28;20452;-90
2023/01/27 02:48:32;;;;;;;5.53;4.43;;;8.50;85.00;;;;;;5032077;28;20099;-88
2023/01/27 02:50:58;;;;;;;7.28;4.20;;;8.40;85.00;;;;;;5032511;28;20056;-88
2023/01/27 02:53:24;;;;;;;7.82;4.43;;;8.40;84.90;;;;;;5032541;28;20476;-88
2023/01/27 02:55:49;;;;;;;6.40;4.10;;;8.40;84.80;;;;;;5015761;28;20051;-87
2023/01/27 02:58:15;;;;;;;4.28;3.70;;;8.40;84.80;;;;;;5015773;28;20037;-87
2023/01/27 03:00:42;;;;;;;4.95;3.85;;;8.40;84.70;;;;;;5032246;28;20033;-88
2023/01/27 03:03:08;;;;;;;5.35;3.70;;;8.40;84.50;;;;;;5032151;28;20072;-88
2023/01/27 03:05:33;;;;;;;4.22;3.47;;;8.40;84.60;;;;;;5015950;28;20450;-88
2023/01/27 03:07:59;;;;;;;4.40;3.60;;;8.40;84.40;;;;;;5031886;28;20048;-88
2023/01/27 03:10:24;;;;;;;5.80;3.63;;;8.40;84.40;;;;;;5032496;28;20399;-89
2023/01/27 03:12:50;;;;;;;3.92;3.45;;;8.40;84.30;;;;;;5031995;28;20115;-88
2023/01/27 03:18:17;;;;;;;5.60;3.58;;;8.40;84.20;;;;;;5032111;28;20056;-89
2023/01/27 03:20:45;;;;;;;5.05;3.80;;;8.30;84.10;;;;;;5015448;28;20045;-89
2023/01/27 03:23:12;;;;;;;4.50;3.55;;;8.40;84.20;;;;;;5031840;28;20094;-88
2023/01/27 03:25:43;;;;;;;5.80;4.00;;;8.40;84.10;;;;;;5032101;28;20763;-88
2023/01/27 03:28:09;;;;;;;6.75;3.78;;;8.30;84.10;;;;;;5015973;28;20048;-88
2023/01/27 03:30:35;;;;;;;4.00;3.50;;;8.30;84.00;;;;;;5031701;28;20037;-88
2023/01/27 03:33:02;;;;;;;4.65;3.63;;;8.30;84.00;;;;;;5032112;28;20469;-88
2023/01/27 03:35:33;;;;;;;5.07;4.07;;;8.30;84.00;;;;;;5015872;28;20045;-88
2023/01/27 03:46:18;;;;;;;6.47;4.30;;;8.30;83.50;;;;;;5032539;28;20053;-89
2023/01/27 03:48:55;;;;;;;5.55;4.03;;;8.40;83.50;;;;;;5032201;28;20053;-89
2023/01/27 03:51:23;;;;;;;5.32;4.38;;;8.30;83.50;;;;;;5031566;28;20052;-88
2023/01/27 03:53:48;;;;;;;5.70;4.15;;;8.30;83.40;;;;;;5015097;28;20682;-88
2023/01/27 03:56:15;;;;;;;6.15;3.83;;;8.40;83.30;;;;;;5032266;28;20049;-88
2023/01/27 03:58:42;;;;;;;5.75;4.63;;;8.40;83.40;;;;;;5014654;28;20048;-88
2023/01/27 04:01:19;;;;;;;8.20;4.85;;;8.40;83.20;;;;;;5031616;28;20079;-88
2023/01/27 04:09:19;;;;;;;4.53;3.17;;;8.40;82.80;;;;;;5032679;28;20053;-89
2023/01/27 04:11:54;;;;;;;4.25;3.00;;;8.30;82.60;;;;;;5017819;28;20041;-88
2023/01/27 04:14:21;;;;;;;3.72;3.00;;;8.40;82.60;;;;;;5035502;28;20052;-88
2023/01/27 04:16:47;;;;;;;3.55;2.95;;;8.30;82.70;;;;;;5033079;28;20055;-88
2023/01/27 04:19:13;;;;;;;4.60;3.00;;;8.30;82.70;;;;;;5014745;28;20041;-88
2023/01/27 04:21:40;;;;;;;3.88;3.22;;;8.30;82.60;;;;;;5016260;28;20562;-88
2023/01/27 04:24:16;;;;;;;8.43;2.75;;;8.30;82.60;;;;;;5015001;28;20156;-88
2023/01/27 04:26:45;;;;;;;4.53;3.15;;;8.30;82.60;;;;;;5032387;28;20738;-89
2023/01/27 04:29:14;;;;;;;4.18;2.70;;;8.30;82.40;;;;;;5031550;28;20045;-88
2023/01/27 04:31:40;;;;;;;4.05;2.70;;;8.30;82.30;;;;;;5033057;28;20051;-88
2023/01/27 04:34:06;;;;;;;3.40;3.00;;;8.30;82.20;;;;;;5035664;28;20465;-88
2023/01/27 04:36:31;;;;;;;4.68;2.63;;;8.30;82.10;;;;;;5019033;28;20043;-88
2023/01/27 04:38:57;;;;;;;3.78;2.85;;;8.30;82.10;;;;;;5036167;28;20041;-87
2023/01/27 04:41:23;;;;;;;3.67;2.75;;;8.30;82.00;;;;;;5036473;28;20049;-89
2023/01/27 04:43:48;;;;;;;5.38;2.50;;;8.30;82.00;;;;;;5019729;28;20041;-88
2023/01/27 04:46:14;;;;;;;3.60;2.58;;;8.30;81.90;;;;;;5035697;28;20090;-87
2023/01/27 04:48:39;;;;;;;3.85;2.60;;;8.20;81.80;;;;;;5018822;28;20064;-87
2023/01/27 04:51:05;;;;;;;3.30;2.78;;;8.20;81.80;;;;;;5018695;28;20394;-87
2023/01/27 04:53:31;;;;;;;6.63;2.60;;;8.20;81.70;;;;;;5019308;28;20083;-89
2023/01/27 04:56:05;;;;;;;3.00;2.58;;;8.20;81.70;;;;;;5034780;28;20052;-87
2023/01/27 04:58:31;;;;;;;4.60;2.67;;;8.20;81.70;;;;;;5018118;28;20045;-87
2023/01/27 05:00:57;;;;;;;5.75;2.90;;;8.20;81.60;;;;;;5035282;28;20052;-87
2023/01/27 05:03:23;;;;;;;4.60;3.10;;;8.20;81.60;;;;;;5035166;28;20053;-87
2023/01/27 05:05:48;;;;;;;5.90;2.80;;;8.30;81.60;;;;;;5034424;28;20057;-88
2023/01/27 05:08:14;;;;;;;3.53;2.65;;;8.30;81.60;;;;;;5017328;28;20510;-86
2023/01/27 05:10:43;;;;;;;3.08;2.70;;;8.30;81.60;;;;;;5018448;28;20506;-88
2023/01/27 05:13:09;;;;;;;3.45;2.50;;;8.30;81.50;;;;;;5018101;28;20041;-89
2023/01/27 05:15:35;;;;;;;4.70;2.95;;;8.30;81.50;;;;;;5033956;28;20056;-86
2023/01/27 05:18:00;;;;;;;6.78;3.20;;;8.30;81.60;;;;;;5034606;28;20041;-87
2023/01/27 05:20:26;;;;;;;5.97;3.10;;;8.30;81.70;;;;;;5033959;28;20095;-87
2023/01/27 05:23:33;;;;;;;5.00;3.05;;;8.30;81.70;;;;;;5033935;28;20041;-88
2023/01/27 05:25:41;;;;;;;4.80;2.88;;;8.30;81.80;;;;;;5033464;28;20056;-86
2023/01/27 05:28:07;;;;;;;5.70;2.95;;;8.30;81.70;;;;;;5033590;28;20051;-86
2023/01/27 05:30:32;;;;;;;5.13;3.78;;;8.30;82.40;;;;;;5017271;28;20496;-88
2023/01/27 05:32:58;;;;;;;5.50;3.45;;;8.20;81.80;;;;;;5017765;28;20045;-88
2023/01/27 05:35:23;;;;;;;7.25;3.45;;;8.20;81.90;;;;;;5034451;28;20560;-88
2023/01/27 05:37:49;;;;;;;4.75;2.97;;;8.20;82.00;;;;;;5017736;28;20052;-88
2023/01/27 05:40:15;;;;;;;6.70;3.50;;;8.20;82.00;;;;;;5034272;28;20517;-88
2023/01/27 05:42:40;;;;;;;4.43;3.50;;;8.10;82.00;;;;;;5032925;28;20080;-88
2023/01/27 05:45:07;;;;;;;4.88;3.40;;;8.10;82.10;;;;;;5018300;28;20051;-87
2023/01/27 05:47:32;;;;;;;5.10;3.17;;;8.10;82.20;;;;;;5034455;28;20124;-87
2023/01/27 05:49:58;;;;;;;5.05;3.30;;;8.10;82.00;;;;;;5034781;28;20128;-89
2023/01/27 05:52:23;;;;;;;5.53;3.05;;;8.10;82.00;;;;;;5017422;28;20049;-86
2023/01/27 05:54:49;;;;;;;5.63;3.70;;;8.10;82.00;;;;;;5034022;28;20106;-87
2023/01/27 05:57:14;;;;;;;8.25;3.70;;;8.10;81.90;;;;;;5033956;28;20470;-87
2023/01/27 05:59:40;;;;;;;6.68;3.63;;;8.10;81.90;;;;;;5033381;28;20048;-87
2023/01/27 06:02:06;;;;;;;4.55;3.45;;;8.10;81.90;;;;;;5032847;28;20135;-86
2023/01/27 06:04:31;;;;;;;6.32;3.60;;;8.10;81.90;;;;;;5016696;28;20052;-88
2023/01/27 06:06:57;;;;;;;6.72;3.20;;;8.10;81.80;;;;;;5032827;28;20060;-86
2023/01/27 06:09:22;;;;;;;5.50;3.13;;;8.10;81.90;;;;;;5033739;28;20060;-87
2023/01/27 06:11:48;;;;;;;4.88;3.30;;;8.10;81.90;;;;;;5033217;28;20051;-86
2023/01/27 06:14:14;;;;;;;5.80;3.53;;;8.10;81.90;;;;;;5032977;28;20052;-87
2023/01/27 06:16:39;;;;;;;5.93;3.20;;;8.20;82.00;;;;;;5032704;28;20037;-87
2023/01/27 06:19:05;;;;;;;8.80;3.53;;;8.20;81.90;;;;;;5033246;28;20076;-87
2023/01/27 06:21:30;;;;;;;5.95;3.50;;;8.10;82.00;;;;;;5016527;28;20391;-86
2023/01/27 06:23:57;;;;;;;9.43;3.40;;;8.10;82.10;;;;;;5032626;28;20037;-87
2023/01/27 06:26:22;;;;;;;8.32;4.13;;;8.20;82.20;;;;;;5016981;28;20053;-87
2023/01/27 06:28:48;;;;;;;7.13;3.42;;;8.20;82.20;;;;;;5033228;28;20056;-89
2023/01/27 06:31:16;;;;;;;8.20;4.10;;;8.10;82.20;;;;;;5015791;28;20521;-86
2023/01/27 06:33:42;;;;;;;4.68;3.58;;;8.10;82.20;;;;;;5015569;28;20037;-87
2023/01/27 06:36:14;;;;;;;4.65;3.40;;;8.10;82.20;;;;;;5032543;28;20406;-87
2023/01/27 06:38:39;;;;;;;5.22;3.45;;;8.10;82.20;;;;;;5031964;28;20037;-86
2023/01/27 06:41:05;;;;;;;6.57;3.30;;;8.20;82.20;;;;;;5015712;28;20399;-86
2023/01/27 06:43:31;;;;;;;5.82;3.25;;;8.20;82.20;;;;;;5032113;28;20053;-87
2023/01/27 06:45:56;;;;;;;6.03;3.65;;;8.20;82.30;;;;;;5031765;28;20059;-87
2023/01/27 06:48:23;;;;;;;8.70;4.20;;;8.20;82.30;;;;;;5031698;28;20189;-86
2023/01/27 06:50:48;;;;;;;5.00;3.80;;;8.20;82.20;;;;;;5032347;28;20051;-87
2023/01/27 06:53:14;;;;;;;5.75;3.67;;;8.20;82.20;;;;;;5015513;28;20402;-87
2023/01/27 06:55:43;;;;;;;7.50;3.38;;;8.20;82.30;;;;;;5031598;28;20083;-87
2023/01/27 06:58:10;;;;;;;4.95;3.20;;;8.20;82.30;;;;;;5032480;28;20120;-87
2023/01/27 07:00:38;;;;;;;10.65;3.88;;;8.20;82.30;;;;;;5031563;28;20120;-86
2023/01/27 07:03:04;;;;;;;6.90;3.97;;;8.10;82.40;;;;;;5031840;28;20048;-89
2023/01/27 07:05:30;;;;;;;8.68;3.70;;;8.20;82.40;;;;;;5015219;28;20052;-86
2023/01/27 07:07:56;;;;;;;8.40;3.97;;;8.20;82.40;;;;;;5031542;28;20048;-88
2023/01/27 07:10:23;;;;;;;8.80;3.95;;;8.20;82.50;;;;;;5031720;28;20127;-86
2023/01/27 07:12:48;;;;;;;8.02;3.88;;;8.10;82.50;;;;;;5032028;28;20132;-86
2023/01/27 07:15:14;;;;;;;7.78;3.67;;;8.10;82.60;;;;;;5031347;28;20047;-86
2023/01/27 07:17:39;;;;;;;7.85;4.00;;;8.10;82.70;;;;;;5031133;28;20425;-88
2023/01/27 07:20:08;;;;;;;5.60;3.28;;;8.10;82.70;;;;;;5015032;28;20760;-86
2023/01/27 07:22:34;;;;;;;6.50;3.55;;;8.10;82.70;;;;;;5031791;28;20045;-87
2023/01/27 07:25:00;;;;;;;6.07;3.60;;;8.10;82.80;;;;;;5031416;28;20044;-86
2023/01/27 07:27:25;;;;;;;11.07;4.18;;;8.10;82.90;;;;;;5031934;28;20053;-86
2023/01/27 07:29:51;;;;;;;5.55;3.90;;;8.10;83.00;;;;;;5015060;28;20574;-86
2023/01/27 07:32:17;;;;;;;6.68;3.85;;;8.10;83.00;;;;;;5014553;28;20044;-86
2023/01/27 07:34:43;;;;;;;7.15;3.80;;;8.10;83.10;;;;;;5031397;28;20057;-86
2023/01/27 07:37:08;;;;;;;10.70;4.47;;;8.10;83.10;;;;;;5031214;28;20516;-87
2023/01/27 07:39:36;;;;;;;6.93;3.75;;;8.10;83.10;;;;;;5030702;28;20076;-86
2023/01/27 07:42:02;;;;;;;6.57;3.88;;;8.10;83.20;;;;;;5014971;28;20585;-88
2023/01/27 07:44:28;;;;;;;5.97;3.70;;;8.10;83.10;;;;;;5030534;28;20049;-86
2023/01/27 07:46:56;;;;;;;7.72;3.95;;;8.10;83.20;;;;;;5030715;28;20049;-86
2023/01/27 07:49:22;;;;;;;5.88;4.10;;;8.10;83.20;;;;;;5030979;28;20586;-85
2023/01/27 07:51:47;;;;;;;7.10;4.13;;;8.10;83.30;;;;;;5030772;28;20133;-86
2023/01/27 07:54:13;;;;;;;10.45;4.22;;;8.10;83.40;;;;;;5030689;28;20068;-86
2023/01/27 07:56:38;;;;;;;9.23;4.05;;;8.00;83.40;;;;;;5030739;28;20041;-86
2023/01/27 07:59:04;;;;;;;7.45;4.20;;;8.00;83.40;;;;;;5030680;28;20048;-86
2023/01/27 08:01:30;;;;;;;9.63;4.50;;;8.10;83.60;;;;;;5014126;28;20049;-86
2023/01/27 08:03:55;;;;;;;7.90;4.30;;;8.10;83.60;;;;;;5014629;28;20049;-86
2023/01/27 08:06:21;;;;;;;8.60;4.38;;;8.10;83.50;;;;;;5047768;28;20091;-86
2023/01/27 08:08:47;;;;;;;8.73;4.53;;;8.10;83.60;;;;;;5055155;28;20063;-87
2023/01/27 08:11:14;;;;;;;11.68;5.03;;;8.10;83.70;;;;;;5038301;28;20048;-86
2023/01/27 08:13:40;;;;;;;10.02;5.50;;;8.10;83.70;;;;;;5054392;28;20558;-87
2023/01/27 08:16:09;;;;;;;14.05;5.40;;;8.10;83.80;;;;;;5054343;28;20405;-86
2023/01/27 08:18:35;;;;;;;7.68;4.70;;;8.10;83.80;;;;;;5054500;28;20396;-86
2023/01/27 08:21:04;;;;;;;10.70;4.82;;;8.10;83.80;;;;;;5038065;28;20485;-85
2023/01/27 08:23:30;;;;;;;8.80;5.03;;;8.10;83.90;;;;;;5054492;28;20051;-86
2023/01/27 08:25:58;;;;;;;10.18;5.03;;;8.20;84.00;;;;;;5054070;28;20053;-87
2023/01/27 08:28:25;;;;;;;9.50;4.88;;;8.20;84.00;;;;;;5054503;28;20374;-86
2023/01/27 08:30:52;;;;;;;9.98;5.60;;;8.20;84.00;;;;;;5053874;28;20053;-86
2023/01/27 08:33:22;;;;;;;6.93;4.93;;;8.20;83.90;;;;;;5037420;28;20052;-88
2023/01/27 08:35:49;;;;;;;8.68;5.50;;;8.20;83.90;;;;;;5054190;28;20064;-85
2023/01/27 08:38:17;;;;;;;10.98;5.97;;;8.30;83.90;;;;;;5053591;28;20561;-86
2023/01/27 08:40:44;;;;;;;8.77;5.30;;;8.30;83.80;;;;;;5053886;28;20048;-86
2023/01/27 08:43:12;;;;;;;8.57;6.28;;;8.30;83.80;;;;;;5053988;28;20049;-86
2023/01/27 08:45:37;;;;;;;12.85;6.40;;;8.40;83.80;;;;;;5037172;28;20088;-85
2023/01/27 08:48:05;;;;;;;12.10;6.25;;;8.40;83.70;;;;;;5036972;28;20516;-86
2023/01/27 08:50:31;;;;;;;10.13;6.30;;;8.40;83.70;;;;;;5037142;28;20056;-86
2023/01/27 08:52:58;;;;;;;8.50;5.47;;;8.50;83.80;;;;;;5053839;28;20505;-87
2023/01/27 08:55:31;;;;;;;10.75;6.40;;;8.50;83.70;;;;;;5053898;28;20119;-87
2023/01/27 08:57:57;;;;;;;11.90;6.95;;;8.40;83.70;;;;;;5053040;28;20059;-85
2023/01/27 09:00:23;;;;;;;13.15;6.50;;;8.50;83.60;;;;;;5053444;28;20044;-86
2023/01/27 09:02:50;;;;;;;11.23;6.05;;;8.50;83.60;;;;;;5053378;28;20099;-86
2023/01/27 09:05:17;;;;;;;7.25;6.00;;;8.50;83.80;;;;;;5053453;28;20048;-85
2023/01/27 09:07:43;;;;;;;9.05;7.07;;;8.40;83.80;;;;;;5049435;28;20560;-85
2023/01/27 09:10:09;;;;;;;9.73;6.80;;;8.50;83.80;;;;;;5050123;28;20048;-86
2023/01/27 09:12:35;;;;;;;12.60;6.28;;;8.50;83.80;;;;;;5033676;28;20045;-85
2023/01/27 09:15:01;;;;;;;8.95;6.50;;;8.50;84.00;;;;;;5049470;28;20056;-85
2023/01/27 09:17:26;;;;;;;10.23;6.40;;;8.50;84.00;;;;;;5049909;28;20525;-85
2023/01/27 09:19:52;;;;;;;8.27;6.20;;;8.50;84.00;;;;;;5050335;28;20074;-86
2023/01/27 09:22:18;;;;;;;8.38;6.07;;;8.50;84.10;;;;;;5049550;28;20556;-86
2023/01/27 09:24:43;;;;;;;10.70;6.30;;;8.60;84.00;;;;;;5049358;28;20048;-87
2023/01/27 09:27:09;;;;;;;10.43;5.80;;;8.60;84.00;;;;;;5033002;28;20410;-87
2023/01/27 09:29:35;;;;;;;9.93;5.60;;;8.60;84.00;;;;;;5049756;28;20130;-86
2023/01/27 09:32:02;;;;;;;11.88;6.45;;;8.70;83.90;;;;;;5049809;28;20641;-86
2023/01/27 09:34:27;;;;;;;7.63;5.53;;;8.70;83.90;;;;;;5049931;28;20087;-86
2023/01/27 09:37:00;;;;;;;7.95;6.28;;;8.70;83.90;;;;;;5032366;28;20045;-85
2023/01/27 09:39:27;;;;;;;;;;;8.70;84.00;;;;;;5049592;28;20049;-85
2023/01/27 09:42:15;;;;;;;9.65;5.82;;;8.80;83.90;;;;;;5049603;28;19928;-86
2023/01/27 09:45:05;;;;;;;7.78;5.00;;;8.70;83.50;;;;;;5049276;28;20048;-85
2023/01/27 09:47:33;;;;;;;9.40;5.47;;;8.70;83.50;;;;;;5049085;28;20049;-85
2023/01/27 09:50:51;;;;;;;11.10;5.20;;;8.70;83.60;;;;;;5049398;28;20076;-86
2023/01/27 09:53:31;;;;;;;9.45;5.10;;;8.60;84.20;;;;;;4972466;28;20496;-85
2023/01/27 09:56:19;;;;;;;9.50;4.70;;;8.60;83.70;;;;;;5049059;28;20044;-85
2023/01/27 09:59:15;;;;;;;7.25;4.78;;;8.60;83.80;;;;;;5031443;28;20048;-86
2023/01/27 10:02:06;;;;;;;7.95;4.18;;;8.50;84.20;;;;;;5046898;28;20107;-86
2023/01/27 10:05:05;;;;;;;6.80;4.63;;;8.50;84.00;;;;;;5047137;28;20490;-86
2023/01/27 10:07:49;;;;;;;8.38;4.40;;;8.50;84.20;;;;;;5047154;28;20049;-85
2023/01/27 10:10:31;;;;;;;8.40;4.18;;;8.60;83.90;;;;;;5046602;28;20080;-85
2023/01/27 10:13:00;;;;;;;7.20;4.30;;;8.60;83.90;;;;;;5047221;28;20049;-85
2023/01/27 10:15:52;;;;;;;12.95;6.43;;;8.60;84.00;;;;;;5048449;28;20118;-85
2023/01/27 10:18:34;;;;;;;8.02;4.53;;;8.40;84.00;;;;;;4992208;28;20064;-85
2023/01/27 10:21:15;;;;;;;8.45;4.82;;;8.50;84.00;;;;;;5048653;28;20045;-86
2023/01/27 10:23:59;;;;;;;5.60;3.92;;;8.40;83.90;;;;;;5048426;28;20108;-86
2023/01/27 10:26:43;;;;;;;6.10;3.97;;;8.40;84.10;;;;;;5031773;28;20084;-85
2023/01/27 10:29:22;;;;;;;6.82;4.10;;;8.40;83.90;;;;;;5047910;28;20056;-85
2023/01/27 10:32:11;;;;;;;6.68;3.95;;;8.50;83.90;;;;;;5047894;28;20120;-86
2023/01/27 10:34:50;;;;;;;6.95;4.30;;;8.40;84.10;;;;;;5048281;28;20083;-85
2023/01/27 10:37:33;;;;;;;4.93;3.85;;;8.40;83.90;;;;;;5048365;28;20085;-85
2023/01/27 10:40:10;;;;;;;5.43;3.63;;;8.40;83.90;;;;;;5048577;28;20394;-86
2023/01/27 10:42:44;;;;;;;5.28;3.50;;;8.40;83.60;;;;;;5047977;28;20048;-86
2023/01/27 10:45:15;;;;;;;5.10;3.83;;;8.40;83.50;;;;;;5048207;28;20053;-86
2023/01/27 10:48:15;;;;;;;5.57;4.05;;;8.40;83.70;;;;;;5048025;28;20045;-86
2023/01/27 10:50:45;;;;;;;6.57;3.65;;;8.30;83.80;;;;;;5048275;28;20057;-85
2023/01/27 10:53:15;;;;;;;5.07;3.60;;;8.40;83.50;;;;;;5048374;28;20053;-85
2023/01/27 10:56:03;;;;;;;6.10;3.75;;;8.40;83.50;;;;;;5047966;28;20053;-85
2023/01/27 10:58:56;;;;;;;7.82;4.00;;;8.30;83.80;;;;;;5047694;28;20055;-86
2023/01/27 11:01:31;;;;;;;5.03;3.50;;;8.40;83.80;;;;;;5048044;28;20057;-86
2023/01/27 11:04:12;;;;;;;3.72;3.25;;;8.40;83.30;;;;;;5031340;28;20144;-86
2023/01/27 11:06:40;;;;;;;4.97;3.45;;;8.40;83.40;;;;;;5030895;28;20068;-87
2023/01/27 11:09:09;;;;;;;3.20;2.53;;;8.50;83.10;;;;;;5047859;28;20056;-86
2023/01/27 11:11:45;;;;;;;3.00;2.33;;;8.40;83.10;;;;;;5047399;28;20044;-87
2023/01/27 11:14:15;;;;;;;4.18;2.22;;;8.40;83.10;;;;;;5048174;28;20498;-86
2023/01/27 11:16:46;;;;;;;3.80;2.30;;;8.40;83.10;;;;;;5047381;28;20055;-86
2023/01/27 11:19:39;;;;;;;3.42;2.30;;;8.40;83.00;;;;;;5031299;28;20041;-87
2023/01/27 11:22:25;;;;;;;2.70;2.45;;;8.30;83.10;;;;;;5047304;28;20152;-86
2023/01/27 11:25:01;;;;;;;2.90;2.30;;;8.30;82.60;;;;;;5047715;28;20521;-86
2023/01/27 11:28:04;;;;;;;3.85;2.85;;;8.40;82.50;;;;;;5030953;28;20063;-85
2023/01/27 11:30:37;;;;;;;2.50;2.30;;;8.50;82.70;;;;;;5016508;28;20048;-85
2023/01/27 11:33:32;;;;;;;2.60;2.40;;;8.60;82.00;;;;;;5046782;28;20532;-86
2023/01/27 11:35:58;;;;;;;2.85;2.58;;;8.60;82.10;;;;;;5047653;28;20111;-85
2023/01/27 11:38:24;;;;;;;3.63;2.70;;;8.70;81.80;;;;;;5047659;28;20052;-85
2023/01/27 11:40:51;;;;;;;4.20;2.85;;;8.70;81.80;;;;;;5049012;28;20490;-86
2023/01/27 11:43:21;;;;;;;2.70;2.50;;;8.70;81.70;;;;;;5051574;28;20045;-85
2023/01/27 11:45:48;;;;;;;3.85;2.45;;;8.70;81.50;;;;;;5051745;28;20057;-86
2023/01/27 11:48:18;;;;;;;3.35;2.88;;;8.70;81.50;;;;;;5051465;28;20072;-86
2023/01/27 11:50:45;;;;;;;2.50;2.28;;;8.70;81.40;;;;;;5050962;28;20056;-87
2023/01/27 11:53:25;;;;;;;3.38;2.40;;;8.80;81.20;;;;;;5051426;28;20053;-86
2023/01/27 11:55:59;;;;;;;3.33;2.40;;;8.70;81.20;;;;;;5051430;28;20088;-86
2023/01/27 11:58:35;;;;;;;2.70;2.35;;;8.70;81.00;;;;;;5034686;28;20045;-86
2023/01/27 12:01:05;;;;;;;2.80;2.03;;;8.70;80.90;;;;;;5051271;28;20970;-87
2023/01/27 12:03:51;;;;;;;2.13;1.92;;;8.70;80.80;;;;;;5050959;28;20044;-87
2023/01/27 12:06:25;;;;;;;4.55;1.85;;;8.60;81.00;;;;;;5037206;28;20053;-86
2023/01/27 12:08:51;;;;;;;2.50;1.80;;;8.70;80.80;;;;;;5054477;28;20394;-86
2023/01/27 12:11:27;;;;;;;2.63;1.92;;;8.80;80.80;;;;;;5054475;28;20052;-86
2023/01/27 12:13:55;;;;;;;2.38;2.15;;;8.80;80.60;;;;;;5037203;28;20094;-86
2023/01/27 12:16:26;;;;;;;2.67;1.75;;;8.80;80.50;;;;;;5054391;28;20132;-86
2023/01/27 12:19:03;;;;;;;2.67;2.25;;;8.80;80.50;;;;;;5054789;28;20452;-86
2023/01/27 12:21:43;;;;;;;3.47;2.55;;;8.80;80.50;;;;;;5053897;28;20044;-86
2023/01/27 12:24:21;;;;;;;3.05;2.38;;;8.70;80.60;;;;;;5037666;28;20528;-85
2023/01/27 12:26:46;;;;;;;2.90;2.40;;;8.70;80.60;;;;;;5053522;28;20044;-86
2023/01/27 12:29:25;;;;;;;3.40;2.83;;;8.90;80.40;;;;;;5053953;28;20154;-86
2023/01/27 12:31:53;;;;;;;2.80;2.60;;;8.80;80.40;;;;;;5054018;28;20052;-86
2023/01/27 12:34:22;;;;;;;3.60;2.53;;;8.90;80.30;;;;;;5053966;28;20044;-85
2023/01/27 12:36:49;;;;;;;2.65;2.42;;;8.90;80.20;;;;;;5053940;28;20571;-86
2023/01/27 12:39:40;;;;;;;3.58;2.60;;;8.90;80.10;;;;;;5053997;28;20036;-86
2023/01/27 12:42:37;;;;;;;2.80;2.50;;;8.80;80.40;;;;;;5054066;28;20413;-86
2023/01/27 12:45:17;;;;;;;3.47;2.65;;;8.80;80.40;;;;;;5053536;28;20044;-86
2023/01/27 12:48:03;;;;;;;3.20;2.90;;;8.70;80.40;;;;;;5054012;28;20051;-88
2023/01/27 12:50:34;;;;;;;4.95;3.30;;;8.70;80.50;;;;;;5053539;28;20047;-87
2023/01/27 12:53:11;;;;;;;3.30;3.00;;;8.80;80.50;;;;;;5053461;28;20091;-88
2023/01/27 12:55:41;;;;;;;4.47;2.90;;;8.80;80.60;;;;;;5037208;28;20501;-88
2023/01/27 12:58:34;;;;;;;3.50;3.10;;;8.80;80.50;;;;;;5053871;28;20083;-88
2023/01/27 13:01:20;;;;;;;2.85;2.53;;;8.80;80.80;;;;;;5037014;28;20067;-88
2023/01/27 13:04:20;;;;;;;3.35;2.35;;;8.90;80.30;;;;;;5054234;28;20158;-88
2023/01/27 13:06:55;;;;;;;4.05;2.15;;;8.90;80.60;;;;;;5031709;28;20102;-87
2023/01/27 13:09:33;;;;;;;3.17;2.47;;;8.90;80.20;;;;;;5037479;28;20502;-87
2023/01/27 13:12:11;;;;;;;4.53;2.40;;;8.80;80.30;;;;;;5036937;28;20045;-88
2023/01/27 13:14:40;;;;;;;4.10;1.90;;;8.90;80.30;;;;;;5053858;28;20583;-88
2023/01/27 13:17:27;;;;;;;2.42;2.22;;;8.90;80.20;;;;;;5053924;28;20051;-88
2023/01/27 13:19:57;;;;;;;2.35;2.15;;;8.80;80.60;;;;;;5054097;28;20402;-88
2023/01/27 13:22:25;;;;;;;3.25;2.35;;;8.90;80.30;;;;;;5053865;28;20048;-88
2023/01/27 13:24:56;;;;;;;4.10;2.60;;;8.90;80.30;;;;;;5036704;28;20630;-88
2023/01/27 13:27:24;;;;;;;3.30;2.00;;;8.90;80.20;;;;;;5053763;28;20085;-88
2023/01/27 13:30:02;;;;;;;3.67;2.15;;;8.90;80.10;;;;;;5053411;28;20517;-88
2023/01/27 13:32:33;;;;;;;2.13;1.98;;;8.90;80.20;;;;;;5053971;28;20127;-88
2023/01/27 13:35:23;;;;;;;2.30;2.10;;;9.00;80.10;;;;;;5036805;28;20041;-88
2023/01/27 13:38:11;;;;;;;2.22;2.10;;;8.90;80.30;;;;;;5036389;28;20106;-88